Time;durP1;ratioP1;P1;durP2;ratioP2;P2;SDS_P1;SDS_P2;PMS_P1;PMS_P2;Temp;Humidity;BMP_temperature;BMP_pressure;BME280_temperature;BME280_humidity;BME280_pressure;Samples;Min_cycle;Max_cycle;Signal;HPM_P1;HPM_P2
2023/07/15 00:00:18;;;;;;;8.37;4.90;;;18.80;79.90;;;;;;5075821;28;20423;-72
2023/07/15 00:02:45;;;;;;;6.10;4.20;;;18.80;79.70;;;;;;5097416;28;20308;-72
2023/07/15 00:05:20;;;;;;;5.50;4.53;;;18.80;79.70;;;;;;5093354;28;20637;-72
2023/07/15 00:07:46;;;;;;;;;;;18.80;79.70;;;;;;5093399;28;20828;-72
2023/07/15 00:10:12;;;;;;;7.57;4.80;;;18.70;79.80;;;;;;5091965;28;19916;-72
2023/07/15 00:12:38;;;;;;;7.60;4.97;;;18.70;79.80;;;;;;5069303;28;20285;-72
2023/07/15 00:15:05;;;;;;;7.90;4.53;;;18.80;79.60;;;;;;5075581;28;20132;-72
2023/07/15 00:17:31;;;;;;;6.40;4.93;;;18.80;79.60;;;;;;5074070;28;20127;-72
2023/07/15 00:19:57;;;;;;;7.50;4.37;;;18.70;79.60;;;;;;5077211;28;20379;-72
2023/07/15 00:22:23;;;;;;;7.17;5.07;;;18.80;79.50;;;;;;5075517;28;20074;-72
2023/07/15 00:24:48;;;;;;;8.20;4.17;;;18.80;79.30;;;;;;5102065;28;20677;-72
2023/07/15 00:27:14;;;;;;;7.10;4.07;;;18.80;79.40;;;;;;5085349;28;20036;-72
2023/07/15 00:29:40;;;;;;;7.10;4.60;;;18.80;79.40;;;;;;5092052;28;20027;-72
2023/07/15 00:32:12;;;;;;;8.03;4.40;;;18.80;79.40;;;;;;5075815;28;20047;-72
2023/07/15 00:34:37;;;;;;;6.97;4.40;;;18.80;79.30;;;;;;5076195;28;20050;-72
2023/07/15 00:37:03;;;;;;;6.20;4.40;;;18.80;79.40;;;;;;5082701;28;20301;-72
2023/07/15 00:39:29;;;;;;;6.60;4.53;;;18.80;79.20;;;;;;5086213;28;20085;-72
2023/07/15 00:41:57;;;;;;;7.17;4.20;;;18.80;79.20;;;;;;5087465;28;20039;-72
2023/07/15 00:44:22;;;;;;;5.70;4.10;;;18.80;79.10;;;;;;5064814;28;20066;-72
2023/07/15 00:47:21;;;;;;;5.50;4.20;;;18.90;79.10;;;;;;5092022;28;20618;-72
2023/07/15 00:49:48;;;;;;;7.63;3.97;;;18.90;78.90;;;;;;5072499;28;20035;-72
2023/07/15 00:52:16;;;;;;;8.20;3.90;;;18.90;78.80;;;;;;5087373;28;20969;-72
2023/07/15 00:54:45;;;;;;;4.87;3.67;;;18.90;78.50;;;;;;5100264;28;20290;-72
2023/07/15 00:57:14;;;;;;;6.67;3.57;;;18.90;78.20;;;;;;5091014;28;20289;-72
2023/07/15 00:59:42;;;;;;;7.67;4.00;;;19.00;78.20;;;;;;5080043;28;20281;-72
2023/07/15 01:02:12;;;;;;;8.20;3.83;;;19.00;77.80;;;;;;5077157;28;20297;-72
2023/07/15 01:04:38;;;;;;;4.97;3.60;;;19.00;77.50;;;;;;5098117;28;20274;-72
2023/07/15 01:07:07;;;;;;;5.23;3.97;;;19.00;77.50;;;;;;5078855;28;20323;-72
2023/07/15 01:09:34;;;;;;;6.90;3.83;;;19.10;77.40;;;;;;5091946;28;20277;-72
2023/07/15 01:12:00;;;;;;;6.27;3.90;;;19.10;77.20;;;;;;5091659;28;20850;-72
2023/07/15 01:14:29;;;;;;;6.93;3.87;;;19.10;77.20;;;;;;5074065;28;20368;-72
2023/07/15 01:16:56;;;;;;;5.73;4.00;;;19.10;77.20;;;;;;5091646;28;20087;-72
2023/07/15 01:19:22;;;;;;;6.30;3.97;;;19.10;77.20;;;;;;5087474;28;20321;-72
2023/07/15 01:21:49;;;;;;;4.27;3.40;;;19.10;76.90;;;;;;5073913;28;20040;-72
2023/07/15 01:24:19;;;;;;;6.07;3.47;;;19.10;76.10;;;;;;5083499;28;20653;-72
2023/07/15 01:26:46;;;;;;;6.70;3.83;;;19.20;76.00;;;;;;5089049;28;20281;-72
2023/07/15 01:29:13;;;;;;;5.77;3.40;;;19.20;75.60;;;;;;5074631;28;20654;-72
2023/07/15 01:31:40;;;;;;;7.40;3.40;;;19.30;75.30;;;;;;5073634;28;20286;-72
2023/07/15 01:34:07;;;;;;;7.20;3.30;;;19.40;74.70;;;;;;5091030;28;20288;-72
2023/07/15 01:36:33;;;;;;;5.63;3.20;;;19.40;74.40;;;;;;5074521;28;20277;-71
2023/07/15 01:38:59;;;;;;;5.73;3.37;;;19.40;74.30;;;;;;5075746;28;20293;-71
2023/07/15 01:41:25;;;;;;;6.63;2.73;;;19.40;73.20;;;;;;5087827;28;20681;-71
2023/07/15 01:43:50;;;;;;;5.50;3.27;;;19.50;72.40;;;;;;5072642;28;20031;-71
2023/07/15 01:46:17;;;;;;;5.17;2.93;;;19.50;72.60;;;;;;5083510;28;20028;-71
2023/07/15 01:48:42;;;;;;;4.77;2.73;;;19.50;71.40;;;;;;5096852;28;20502;-71
2023/07/15 01:51:08;;;;;;;6.03;3.13;;;19.60;71.40;;;;;;5087866;28;20281;-71
2023/07/15 01:53:34;;;;;;;6.33;3.00;;;19.60;70.70;;;;;;5090807;28;20039;-71
2023/07/15 01:55:59;;;;;;;4.90;2.90;;;19.70;69.90;;;;;;5090683;28;20047;-71
2023/07/15 01:58:25;;;;;;;8.00;3.30;;;19.80;70.10;;;;;;5082139;28;20384;-71
2023/07/15 02:00:51;;;;;;;8.80;3.13;;;19.80;69.80;;;;;;5099425;28;20035;-71
2023/07/15 02:03:16;;;;;;;5.00;2.70;;;19.90;69.20;;;;;;5098793;28;20046;-71
2023/07/15 02:05:43;;;;;;;5.27;3.47;;;19.90;68.80;;;;;;5090777;28;20032;-71
2023/07/15 02:08:08;;;;;;;7.07;3.30;;;20.00;68.80;;;;;;5088464;28;20036;-71
2023/07/15 02:10:34;;;;;;;5.77;2.87;;;20.00;68.50;;;;;;5090326;28;20334;-71
2023/07/15 02:13:00;;;;;;;5.67;2.80;;;20.10;68.80;;;;;;5090055;28;20118;-71
2023/07/15 02:15:25;;;;;;;5.23;3.30;;;20.10;68.50;;;;;;5090490;28;20432;-71
2023/07/15 02:17:51;;;;;;;6.93;3.20;;;20.10;68.70;;;;;;5073630;28;20088;-71
2023/07/15 02:20:19;;;;;;;7.10;2.90;;;20.10;68.40;;;;;;5083928;28;20439;-71
2023/07/15 02:22:44;;;;;;;6.57;2.63;;;20.10;68.60;;;;;;5079011;28;20054;-72
2023/07/15 02:25:10;;;;;;;5.23;3.23;;;20.10;68.40;;;;;;5090225;28;20039;-72
2023/07/15 02:27:36;;;;;;;6.23;2.87;;;20.10;68.50;;;;;;5090367;28;20517;-71
2023/07/15 02:30:04;;;;;;;6.17;2.83;;;20.10;68.40;;;;;;5092647;28;20040;-71
2023/07/15 02:32:39;;;;;;;5.27;2.90;;;20.10;68.40;;;;;;5095569;28;20046;-71
2023/07/15 02:35:10;;;;;;;5.00;3.03;;;20.00;68.40;;;;;;5073392;28;20039;-71
2023/07/15 02:37:40;;;;;;;8.97;3.00;;;20.00;68.80;;;;;;5073189;28;20616;-71
2023/07/15 02:40:08;;;;;;;3.57;2.80;;;19.90;69.00;;;;;;5090626;28;20478;-71
2023/07/15 02:42:34;;;;;;;7.97;3.60;;;19.90;69.10;;;;;;5089691;28;20120;-71
2023/07/15 02:45:01;;;;;;;6.40;3.43;;;19.80;69.30;;;;;;5073155;28;20044;-71
2023/07/15 02:47:29;;;;;;;6.93;2.93;;;19.80;69.50;;;;;;5081778;28;20195;-71
2023/07/15 02:49:57;;;;;;;7.23;3.37;;;19.80;69.60;;;;;;5064504;28;20034;-71
2023/07/15 02:52:23;;;;;;;6.60;3.20;;;19.80;69.60;;;;;;5073160;28;20043;-71
2023/07/15 02:54:49;;;;;;;6.33;3.27;;;19.70;69.80;;;;;;5072740;28;20373;-71
2023/07/15 02:57:14;;;;;;;5.10;3.10;;;19.60;69.80;;;;;;5089867;28;20090;-71
2023/07/15 02:59:40;;;;;;;6.30;3.30;;;19.60;70.00;;;;;;5095929;28;20640;-71
2023/07/15 03:02:06;;;;;;;8.27;3.30;;;19.50;70.30;;;;;;5068666;28;20115;-71
2023/07/15 03:04:32;;;;;;;7.33;3.30;;;19.40;70.60;;;;;;5079462;28;20028;-71
2023/07/15 03:06:58;;;;;;;7.73;3.03;;;19.40;70.70;;;;;;5084725;28;20464;-71
2023/07/15 03:09:25;;;;;;;7.10;3.40;;;19.30;71.10;;;;;;5090079;28;20054;-71
2023/07/15 03:11:50;;;;;;;7.03;3.50;;;19.20;71.30;;;;;;5090120;28;20670;-71
2023/07/15 03:14:16;;;;;;;5.73;3.63;;;19.10;71.60;;;;;;5072970;28;20293;-71
2023/07/15 03:16:42;;;;;;;6.43;2.87;;;19.00;71.90;;;;;;5089943;28;20047;-71
2023/07/15 03:19:07;;;;;;;7.10;3.50;;;19.00;72.10;;;;;;5089132;28;20039;-71
2023/07/15 03:21:33;;;;;;;5.50;3.10;;;18.90;72.40;;;;;;5072326;28;20036;-71
2023/07/15 03:23:59;;;;;;;6.03;3.40;;;18.80;72.80;;;;;;5076558;28;20139;-71
2023/07/15 03:26:24;;;;;;;6.80;3.60;;;18.80;72.90;;;;;;5079093;28;20042;-71
2023/07/15 03:28:50;;;;;;;6.27;3.23;;;18.70;73.20;;;;;;5076348;28;20407;-71
2023/07/15 03:31:16;;;;;;;8.17;3.77;;;18.60;73.30;;;;;;5091630;28;20048;-71
2023/07/15 03:33:41;;;;;;;5.20;3.60;;;18.60;73.80;;;;;;5092545;28;20039;-71
2023/07/15 03:36:07;;;;;;;7.13;3.30;;;18.60;74.00;;;;;;5081348;28;20054;-71
2023/07/15 03:38:33;;;;;;;6.13;4.20;;;18.50;74.10;;;;;;5080420;28;20142;-71
2023/07/15 03:40:58;;;;;;;7.57;3.33;;;18.50;74.20;;;;;;5080307;28;20512;-71
2023/07/15 03:43:24;;;;;;;6.60;3.70;;;18.50;74.50;;;;;;5083020;28;20096;-71
2023/07/15 03:45:50;;;;;;;5.63;3.27;;;18.50;74.90;;;;;;5091709;28;20051;-71
2023/07/15 03:48:16;;;;;;;4.90;3.50;;;18.40;74.80;;;;;;5082357;28;20039;-71
2023/07/15 03:50:44;;;;;;;7.43;3.60;;;18.40;75.00;;;;;;5072198;28;20289;-71
2023/07/15 03:53:10;;;;;;;4.53;3.40;;;18.40;75.30;;;;;;5082496;28;20258;-71
2023/07/15 03:55:37;;;;;;;6.20;3.80;;;18.40;75.30;;;;;;5099330;28;20823;-71
2023/07/15 03:58:03;;;;;;;8.87;3.67;;;18.40;75.60;;;;;;5068435;28;20041;-71
2023/07/15 04:00:29;;;;;;;6.80;3.87;;;18.40;76.10;;;;;;5083743;28;20761;-71
2023/07/15 04:02:55;;;;;;;9.13;4.03;;;18.40;76.30;;;;;;5088847;28;20351;-71
2023/07/15 04:05:21;;;;;;;6.53;3.67;;;18.40;76.50;;;;;;5075232;28;20050;-71
2023/07/15 04:07:47;;;;;;;8.03;4.37;;;18.40;76.80;;;;;;5083018;28;20274;-71
2023/07/15 04:10:13;;;;;;;6.30;4.10;;;18.40;77.20;;;;;;5071792;28;20043;-71
2023/07/15 04:12:39;;;;;;;5.93;4.20;;;18.40;77.20;;;;;;5073934;28;20770;-71
2023/07/15 04:15:05;;;;;;;9.87;4.30;;;18.40;77.40;;;;;;5088805;28;20282;-71
2023/07/15 04:17:31;;;;;;;7.50;4.00;;;18.40;77.50;;;;;;5083118;28;20039;-71
2023/07/15 04:19:57;;;;;;;6.73;3.63;;;18.50;77.90;;;;;;5084014;28;20645;-71
2023/07/15 04:22:24;;;;;;;6.27;4.47;;;18.50;78.00;;;;;;5075401;28;20043;-71
2023/07/15 04:24:49;;;;;;;6.50;4.47;;;18.50;78.10;;;;;;5092473;28;20039;-71
2023/07/15 04:27:15;;;;;;;6.40;4.10;;;18.50;78.60;;;;;;5076216;28;20329;-71
2023/07/15 04:29:41;;;;;;;8.37;4.40;;;18.60;78.70;;;;;;5089687;28;20111;-71
2023/07/15 04:32:07;;;;;;;8.53;4.40;;;18.60;79.00;;;;;;5100607;28;20379;-72
2023/07/15 04:34:33;;;;;;;8.03;4.17;;;18.60;79.30;;;;;;5075432;28;20047;-71
2023/07/15 04:36:58;;;;;;;6.83;4.57;;;18.60;79.40;;;;;;5099769;28;20148;-71
2023/07/15 04:39:27;;;;;;;9.90;4.67;;;18.70;79.60;;;;;;5093369;28;20054;-71
2023/07/15 04:41:52;;;;;;;6.53;4.30;;;18.70;79.80;;;;;;5081824;28;20087;-71
2023/07/15 04:44:18;;;;;;;8.63;4.37;;;18.80;80.00;;;;;;5088689;28;20353;-71
2023/07/15 04:46:45;;;;;;;5.97;4.57;;;18.90;80.20;;;;;;5092430;28;20044;-71
2023/07/15 04:49:12;;;;;;;7.27;4.10;;;19.20;81.10;;;;;;5073738;28;20047;-72
2023/07/15 04:51:38;;;;;;;11.43;4.67;;;19.60;80.20;;;;;;5074636;28;20285;-72
2023/07/15 04:54:03;;;;;;;7.30;3.90;;;19.80;80.00;;;;;;5091600;28;20289;-72
2023/07/15 04:56:29;;;;;;;6.83;4.07;;;20.00;79.90;;;;;;5091134;28;20411;-71
2023/07/15 04:58:55;;;;;;;8.80;4.80;;;20.10;79.80;;;;;;5079516;28;20048;-71
2023/07/15 05:01:22;;;;;;;7.87;4.50;;;20.30;80.60;;;;;;5098204;28;20044;-71
2023/07/15 05:03:48;;;;;;;6.60;3.83;;;20.60;80.50;;;;;;5074581;28;20047;-72
2023/07/15 05:06:14;;;;;;;5.17;3.40;;;20.90;80.90;;;;;;5098105;28;20096;-72
2023/07/15 05:08:39;;;;;;;4.17;3.27;;;21.50;79.90;;;;;;5075948;28;20031;-71
2023/07/15 05:11:05;;;;;;;7.97;3.80;;;22.40;77.80;;;;;;5074739;28;20038;-71
2023/07/15 05:13:31;;;;;;;8.60;4.33;;;23.20;74.90;;;;;;5074277;28;20510;-71
2023/07/15 05:15:56;;;;;;;7.50;3.10;;;23.90;72.50;;;;;;5091272;28;20046;-72
2023/07/15 05:18:22;;;;;;;5.47;3.43;;;24.40;71.00;;;;;;5090419;28;20402;-72
2023/07/15 05:20:48;;;;;;;6.00;3.50;;;24.80;69.10;;;;;;5083163;28;20111;-72
2023/07/15 05:23:14;;;;;;;3.77;3.20;;;25.30;68.70;;;;;;5091190;28;20043;-72
2023/07/15 05:25:42;;;;;;;4.93;3.30;;;25.70;67.60;;;;;;5109909;28;20071;-72
2023/07/15 05:28:08;;;;;;;6.77;3.23;;;26.00;66.40;;;;;;5076584;28;20475;-72
2023/07/15 05:30:36;;;;;;;5.47;2.83;;;26.10;65.20;;;;;;5074269;28;20093;-72
2023/07/15 05:33:01;;;;;;;4.53;3.03;;;25.80;65.50;;;;;;5104059;28;20044;-72
2023/07/15 05:35:27;;;;;;;4.77;2.70;;;25.20;66.90;;;;;;5091838;28;20040;-72
2023/07/15 05:37:53;;;;;;;4.83;3.10;;;24.70;68.50;;;;;;5090317;28;20091;-72
2023/07/15 05:40:18;;;;;;;6.17;2.60;;;24.40;70.30;;;;;;5074673;28;20042;-72
2023/07/15 05:42:45;;;;;;;4.17;2.40;;;24.40;71.00;;;;;;5090644;28;20139;-72
2023/07/15 05:45:12;;;;;;;4.70;2.80;;;24.70;70.20;;;;;;5087378;28;20068;-72
2023/07/15 05:47:38;;;;;;;4.67;2.50;;;25.20;68.90;;;;;;5082425;28;20040;-72
2023/07/15 05:50:06;;;;;;;4.87;2.50;;;25.20;68.20;;;;;;5072691;28;20093;-72
2023/07/15 05:52:33;;;;;;;4.13;2.10;;;25.20;68.20;;;;;;5070720;28;20491;-72
2023/07/15 05:54:58;;;;;;;7.80;2.67;;;25.80;67.80;;;;;;5066387;28;20040;-72
2023/07/15 05:57:24;;;;;;;5.00;2.40;;;26.30;66.20;;;;;;5064146;28;20059;-72
2023/07/15 05:59:50;;;;;;;5.27;2.07;;;26.40;65.10;;;;;;5081856;28;20043;-72
2023/07/15 06:02:16;;;;;;;3.47;1.73;;;26.10;65.10;;;;;;5094047;28;20070;-71
2023/07/15 06:04:42;;;;;;;6.53;1.97;;;25.80;65.80;;;;;;5055989;28;20039;-71
2023/07/15 06:07:07;;;;;;;3.87;2.30;;;25.50;66.60;;;;;;5088414;28;20028;-71
2023/07/15 06:09:33;;;;;;;4.73;1.97;;;25.10;67.90;;;;;;5078742;28;20048;-71
2023/07/15 06:11:59;;;;;;;3.20;2.00;;;24.90;69.30;;;;;;5092278;28;20664;-71
2023/07/15 06:14:24;;;;;;;5.37;1.80;;;25.10;69.40;;;;;;5071886;28;20036;-71
2023/07/15 06:16:50;;;;;;;5.93;2.10;;;25.10;69.00;;;;;;5080397;28;20051;-71
2023/07/15 06:19:16;;;;;;;4.97;1.80;;;24.90;69.30;;;;;;5071046;28;20046;-71
2023/07/15 06:21:42;;;;;;;3.83;1.33;;;24.70;68.40;;;;;;5084062;28;20039;-71
2023/07/15 06:24:08;;;;;;;4.73;1.23;;;24.40;68.10;;;;;;5095551;28;20421;-71
2023/07/15 06:26:33;;;;;;;2.63;1.23;;;24.00;68.60;;;;;;5069631;28;20092;-71
2023/07/15 06:29:00;;;;;;;2.67;1.07;;;23.60;68.60;;;;;;5090290;28;20451;-71
2023/07/15 06:31:27;;;;;;;4.23;1.57;;;23.40;69.50;;;;;;5090206;28;20049;-71
2023/07/15 06:33:52;;;;;;;8.33;1.30;;;23.40;70.20;;;;;;5090352;28;20047;-71
2023/07/15 06:36:18;;;;;;;1.70;1.10;;;23.50;68.70;;;;;;5089894;28;20043;-71
2023/07/15 06:38:44;;;;;;;8.07;1.40;;;23.30;69.70;;;;;;5089657;28;20082;-71
2023/07/15 06:41:10;;;;;;;3.47;1.50;;;23.20;70.30;;;;;;5088065;28;20403;-71
2023/07/15 06:43:36;;;;;;;2.87;1.60;;;23.20;70.80;;;;;;5089885;28;20035;-71
2023/07/15 06:46:02;;;;;;;3.60;1.90;;;23.20;70.90;;;;;;5087432;28;20566;-71
2023/07/15 06:48:27;;;;;;;3.13;2.20;;;23.20;71.70;;;;;;5084492;28;20056;-72
2023/07/15 06:50:53;;;;;;;4.37;2.50;;;23.40;72.10;;;;;;5070923;28;20035;-71
2023/07/15 06:53:19;;;;;;;6.67;2.50;;;23.50;72.30;;;;;;5081161;28;20075;-73
2023/07/15 06:55:44;;;;;;;4.43;2.60;;;23.60;72.50;;;;;;5074510;28;20114;-73
2023/07/15 06:58:10;;;;;;;5.20;2.27;;;23.60;72.30;;;;;;5082434;28;20040;-73
2023/07/15 07:00:36;;;;;;;3.63;1.90;;;23.60;72.30;;;;;;5092773;28;20038;-72
2023/07/15 07:03:01;;;;;;;4.20;1.73;;;23.50;72.00;;;;;;5095648;28;20100;-72
2023/07/15 07:05:27;;;;;;;4.00;1.97;;;23.50;71.70;;;;;;5095218;28;20050;-72
2023/07/15 07:07:54;;;;;;;8.17;1.60;;;23.50;71.20;;;;;;5086291;28;20024;-73
2023/07/15 07:10:20;;;;;;;4.43;1.90;;;23.40;71.10;;;;;;5091783;28;20623;-72
2023/07/15 07:12:46;;;;;;;3.77;2.00;;;23.40;71.00;;;;;;5064695;28;20050;-73
2023/07/15 07:15:12;;;;;;;6.57;1.87;;;23.50;70.90;;;;;;5077961;28;20048;-73
2023/07/15 07:17:38;;;;;;;4.70;1.83;;;23.60;70.90;;;;;;5083117;28;20047;-73
2023/07/15 07:20:04;;;;;;;4.60;2.03;;;23.70;70.80;;;;;;5086226;28;20075;-74
2023/07/15 07:22:30;;;;;;;4.77;2.17;;;23.80;70.80;;;;;;5057481;28;20059;-73
2023/07/15 07:24:58;;;;;;;5.00;1.77;;;23.80;70.50;;;;;;5093319;28;20039;-74
2023/07/15 07:27:24;;;;;;;5.03;2.17;;;23.90;69.90;;;;;;5083378;28;20047;-74
2023/07/15 07:29:49;;;;;;;4.13;1.60;;;23.90;70.10;;;;;;5091889;28;20337;-73
2023/07/15 07:32:15;;;;;;;4.77;1.30;;;24.00;70.30;;;;;;5100114;28;20046;-73
2023/07/15 07:34:41;;;;;;;4.37;1.60;;;24.10;69.50;;;;;;5094206;28;20791;-74
2023/07/15 07:37:08;;;;;;;2.97;1.20;;;24.10;68.50;;;;;;5100836;28;20131;-73
2023/07/15 07:39:34;;;;;;;3.13;1.23;;;24.10;68.10;;;;;;5071993;28;20043;-73
2023/07/15 07:42:00;;;;;;;3.73;1.20;;;24.00;68.20;;;;;;5080318;28;20408;-73
2023/07/15 07:44:26;;;;;;;2.37;1.10;;;24.00;67.60;;;;;;5089555;28;20598;-72
2023/07/15 07:46:51;;;;;;;3.13;1.10;;;24.10;67.50;;;;;;5066256;28;20036;-72
2023/07/15 07:49:17;;;;;;;5.20;1.63;;;24.30;66.90;;;;;;5086061;28;20529;-73
2023/07/15 07:51:43;;;;;;;3.40;1.40;;;24.40;66.60;;;;;;5091479;28;20046;-73
2023/07/15 07:54:08;;;;;;;4.17;1.50;;;24.70;67.60;;;;;;5074271;28;20105;-72
2023/07/15 07:56:35;;;;;;;4.67;1.60;;;24.90;67.20;;;;;;5073580;28;20496;-72
2023/07/15 07:59:02;;;;;;;5.03;1.43;;;25.00;67.00;;;;;;5074290;28;20047;-72
2023/07/15 08:01:28;;;;;;;6.43;1.90;;;25.00;67.10;;;;;;5078707;28;20060;-72
2023/07/15 08:03:55;;;;;;;8.07;1.63;;;25.10;66.20;;;;;;5068233;28;20042;-72
2023/07/15 08:06:21;;;;;;;2.70;1.40;;;25.00;66.70;;;;;;5085137;28;20079;-72
2023/07/15 08:08:47;;;;;;;2.67;1.40;;;25.10;67.10;;;;;;5105419;28;20059;-72
2023/07/15 08:11:13;;;;;;;2.10;0.90;;;25.10;66.80;;;;;;5078660;28;20079;-73
2023/07/15 08:13:39;;;;;;;2.63;0.73;;;25.00;66.20;;;;;;5083084;28;20089;-73
2023/07/15 08:16:05;;;;;;;4.10;0.97;;;24.90;65.60;;;;;;5105334;27;20094;-73
2023/07/15 08:18:30;;;;;;;2.53;0.90;;;24.90;64.90;;;;;;5070575;28;20093;-73
2023/07/15 08:20:56;;;;;;;3.97;0.93;;;24.90;63.20;;;;;;5078884;28;20079;-72
2023/07/15 08:23:22;;;;;;;2.30;0.73;;;24.90;62.00;;;;;;5081279;28;20028;-73
2023/07/15 08:25:48;;;;;;;2.70;0.90;;;25.10;62.20;;;;;;5078475;28;20033;-72
2023/07/15 08:28:13;;;;;;;1.57;0.77;;;25.20;62.20;;;;;;5071122;28;20119;-72
2023/07/15 08:30:39;;;;;;;2.30;0.97;;;25.40;60.20;;;;;;5083672;28;20036;-72
2023/07/15 08:33:06;;;;;;;2.90;0.60;;;25.40;60.30;;;;;;5086911;28;20086;-72
2023/07/15 08:35:32;;;;;;;4.20;0.73;;;25.60;59.90;;;;;;5086106;28;20123;-73
2023/07/15 08:37:58;;;;;;;3.30;0.80;;;25.60;60.40;;;;;;5076945;28;20053;-72
2023/07/15 08:40:25;;;;;;;2.00;0.70;;;25.70;58.90;;;;;;5089115;28;20054;-72
2023/07/15 08:42:51;;;;;;;2.43;0.90;;;25.80;60.60;;;;;;5080585;28;20032;-72
2023/07/15 08:45:17;;;;;;;2.13;0.50;;;25.90;59.60;;;;;;5065099;28;20040;-72
2023/07/15 08:47:44;;;;;;;3.53;1.00;;;26.00;59.00;;;;;;5080443;28;20051;-72
2023/07/15 08:50:18;;;;;;;3.10;0.87;;;26.00;59.70;;;;;;5071985;28;20048;-72
2023/07/15 08:52:44;;;;;;;2.30;0.93;;;26.10;60.30;;;;;;5064448;28;20121;-72
2023/07/15 08:55:12;;;;;;;2.53;0.73;;;26.40;59.60;;;;;;5072070;28;20044;-72
2023/07/15 08:57:38;;;;;;;2.63;0.93;;;26.50;58.10;;;;;;5071706;28;20040;-70
2023/07/15 09:00:08;;;;;;;2.07;0.70;;;26.50;56.60;;;;;;5078616;28;20381;-71
2023/07/15 09:02:37;;;;;;;4.40;1.10;;;26.50;56.30;;;;;;5085304;28;20109;-71
2023/07/15 09:05:08;;;;;;;5.30;1.00;;;26.40;54.70;;;;;;5081194;28;20051;-71
2023/07/15 09:07:56;;;;;;;2.63;0.97;;;26.30;54.00;;;;;;5085941;28;20054;-71
2023/07/15 09:10:23;;;;;;;3.37;0.97;;;26.20;55.10;;;;;;5086049;28;20039;-71
2023/07/15 09:12:53;;;;;;;2.87;0.80;;;25.90;55.60;;;;;;5087051;28;20500;-71
2023/07/15 09:15:19;;;;;;;4.10;1.13;;;25.80;56.80;;;;;;5065881;28;20170;-71
2023/07/15 09:17:53;;;;;;;4.07;0.83;;;25.80;57.20;;;;;;5069231;28;20550;-71
2023/07/15 09:20:20;;;;;;;4.07;0.77;;;25.70;57.60;;;;;;5068205;28;20047;-71
2023/07/15 09:22:59;;;;;;;3.07;0.90;;;25.70;57.80;;;;;;5077967;28;20072;-71
2023/07/15 09:25:25;;;;;;;3.50;1.07;;;25.80;58.60;;;;;;5077466;28;20128;-71
2023/07/15 09:27:52;;;;;;;3.70;1.20;;;25.90;58.10;;;;;;5102485;28;20047;-71
2023/07/15 09:30:18;;;;;;;3.67;0.90;;;26.00;58.00;;;;;;5084653;28;20116;-71
2023/07/15 09:32:45;;;;;;;2.30;0.90;;;25.90;57.50;;;;;;5068556;28;20036;-71
2023/07/15 09:35:10;;;;;;;3.00;0.93;;;25.90;57.10;;;;;;5069770;28;20032;-71
2023/07/15 09:37:37;;;;;;;2.77;0.80;;;25.70;56.20;;;;;;5065111;28;20052;-71
2023/07/15 09:40:08;;;;;;;4.07;1.00;;;25.40;56.50;;;;;;5078944;28;20140;-71
2023/07/15 09:42:56;;;;;;;2.77;1.17;;;25.30;57.40;;;;;;5052211;28;20051;-71
2023/07/15 09:45:36;;;;;;;2.83;1.33;;;25.30;57.30;;;;;;5081478;28;20036;-71
2023/07/15 09:48:07;;;;;;;4.17;1.23;;;25.40;56.70;;;;;;5074481;28;20059;-71
2023/07/15 09:50:34;;;;;;;2.77;1.20;;;25.50;56.60;;;;;;5068560;28;20075;-71
2023/07/15 09:53:01;;;;;;;3.00;1.07;;;25.80;56.50;;;;;;5066583;28;20050;-70
2023/07/15 09:55:31;;;;;;;2.87;1.23;;;26.10;55.90;;;;;;5056409;28;20437;-70
2023/07/15 09:58:18;;;;;;;2.87;1.40;;;26.40;55.30;;;;;;5066852;28;20127;-70
2023/07/15 10:00:50;;;;;;;5.93;1.47;;;26.70;55.00;;;;;;5074454;28;20040;-71
2023/07/15 10:03:30;;;;;;;3.00;0.97;;;26.90;54.10;;;;;;5075623;28;20072;-71
2023/07/15 10:05:56;;;;;;;2.17;0.87;;;27.10;52.00;;;;;;5055261;28;20044;-71
2023/07/15 10:08:23;;;;;;;3.33;1.00;;;27.10;52.30;;;;;;5072444;28;20033;-71
2023/07/15 10:10:48;;;;;;;4.27;0.70;;;27.00;52.10;;;;;;5054928;28;20477;-71
2023/07/15 10:13:15;;;;;;;2.00;1.03;;;26.90;52.30;;;;;;5103422;27;20046;-71
2023/07/15 10:15:42;;;;;;;3.33;0.77;;;26.50;52.80;;;;;;5066698;28;20040;-71
2023/07/15 10:18:31;;;;;;;5.40;1.53;;;26.10;54.20;;;;;;5068581;28;20049;-71
2023/07/15 10:21:04;;;;;;;3.63;1.50;;;26.00;54.30;;;;;;5068668;28;20036;-71
2023/07/15 10:23:32;;;;;;;2.63;0.80;;;26.10;55.50;;;;;;5082726;28;20039;-71
2023/07/15 10:26:04;;;;;;;3.13;0.87;;;26.10;55.50;;;;;;5074698;28;20044;-71
2023/07/15 10:28:37;;;;;;;2.27;0.90;;;26.10;55.40;;;;;;5085244;28;20565;-71
2023/07/15 10:31:14;;;;;;;2.43;1.00;;;26.10;56.10;;;;;;5077394;28;20047;-71
2023/07/15 10:33:53;;;;;;;2.43;1.03;;;25.90;56.90;;;;;;5075566;28;20381;-71
2023/07/15 10:36:44;;;;;;;2.33;0.93;;;25.90;57.60;;;;;;5065287;28;20097;-71
2023/07/15 10:39:18;;;;;;;3.27;1.00;;;25.90;58.10;;;;;;5062299;28;20724;-71
2023/07/15 10:41:52;;;;;;;4.03;1.00;;;26.00;57.40;;;;;;5050897;28;20068;-71
2023/07/15 10:44:25;;;;;;;4.13;0.90;;;26.20;57.20;;;;;;5045767;28;20029;-71
2023/07/15 10:47:00;;;;;;;3.17;0.90;;;26.30;57.00;;;;;;5066532;28;20036;-71
2023/07/15 10:49:26;;;;;;;2.37;1.07;;;26.40;57.30;;;;;;5060397;28;20033;-72
2023/07/15 10:51:54;;;;;;;2.43;0.77;;;26.40;56.90;;;;;;5062401;28;20122;-71
2023/07/15 10:54:22;;;;;;;2.50;0.97;;;26.40;56.70;;;;;;5061604;28;20127;-71
2023/07/15 10:56:49;;;;;;;3.30;1.00;;;26.50;57.80;;;;;;5061256;28;20440;-71
2023/07/15 10:59:15;;;;;;;3.13;0.67;;;26.60;57.50;;;;;;5059151;28;20049;-71
2023/07/15 11:01:42;;;;;;;2.57;0.70;;;26.70;56.20;;;;;;5051110;28;20048;-72
2023/07/15 11:04:08;;;;;;;1.83;0.57;;;26.70;55.80;;;;;;5054850;28;20128;-72
2023/07/15 11:06:34;;;;;;;3.47;0.70;;;26.80;55.80;;;;;;5073382;28;20111;-72
2023/07/15 11:09:20;;;;;;;4.73;0.83;;;26.80;55.80;;;;;;5059438;28;20127;-72
2023/07/15 11:11:48;;;;;;;2.67;1.00;;;26.90;56.80;;;;;;5039598;28;20045;-72
2023/07/15 11:14:26;;;;;;;1.97;0.80;;;27.10;57.10;;;;;;5051419;28;20075;-72
2023/07/15 11:17:00;;;;;;;1.83;0.60;;;27.10;55.70;;;;;;5047113;28;20033;-71
2023/07/15 11:19:28;;;;;;;1.92;0.70;;;27.00;55.50;;;;;;5054767;28;20064;-71
2023/07/15 11:21:59;;;;;;;1.43;0.97;;;26.80;55.30;;;;;;5058374;28;20051;-71
2023/07/15 11:24:27;;;;;;;2.80;0.90;;;26.50;56.70;;;;;;5058458;28;20129;-71
2023/07/15 11:26:54;;;;;;;2.57;0.80;;;26.50;57.50;;;;;;5055275;28;20583;-71
2023/07/15 11:29:20;;;;;;;2.83;0.63;;;26.60;57.10;;;;;;5062722;28;20045;-71
2023/07/15 11:31:51;;;;;;;1.63;0.73;;;26.80;56.40;;;;;;5068433;28;20043;-71
2023/07/15 11:34:19;;;;;;;2.10;0.60;;;26.90;55.90;;;;;;5067312;28;20048;-71
2023/07/15 11:36:46;;;;;;;2.80;0.90;;;26.80;55.60;;;;;;5068580;28;20048;-71
2023/07/15 11:39:12;;;;;;;2.97;0.70;;;26.70;55.60;;;;;;5082503;28;20106;-71
2023/07/15 11:41:38;;;;;;;2.00;0.90;;;26.70;56.00;;;;;;5078775;28;20090;-72
2023/07/15 11:44:16;;;;;;;1.37;0.80;;;26.90;57.10;;;;;;5085533;28;20488;-71
2023/07/15 11:46:44;;;;;;;2.43;0.90;;;27.10;55.00;;;;;;5089991;28;20046;-72
2023/07/15 11:49:10;;;;;;;2.70;1.00;;;27.00;55.10;;;;;;5060911;28;20131;-73
2023/07/15 11:51:42;;;;;;;2.27;0.83;;;27.10;55.50;;;;;;5089129;28;20058;-72
2023/07/15 11:54:09;;;;;;;2.43;1.40;;;27.20;54.70;;;;;;5090786;28;20048;-71
2023/07/15 11:56:36;;;;;;;1.57;0.80;;;27.30;55.00;;;;;;5088757;28;20472;-72
2023/07/15 11:59:04;;;;;;;2.20;1.00;;;27.40;55.20;;;;;;5071049;28;20040;-72
2023/07/15 12:01:30;;;;;;;1.67;0.90;;;27.50;54.00;;;;;;5083091;28;20550;-72
2023/07/15 12:03:56;;;;;;;1.40;0.90;;;27.40;54.30;;;;;;5081385;28;20040;-73
2023/07/15 12:06:30;;;;;;;2.50;1.03;;;27.30;54.30;;;;;;5075121;28;20047;-73
2023/07/15 12:09:07;;;;;;;2.00;1.07;;;27.20;54.80;;;;;;5070891;28;20036;-73
2023/07/15 12:11:33;;;;;;;1.33;0.80;;;27.30;55.80;;;;;;5078808;28;20062;-73
2023/07/15 12:14:01;;;;;;;2.47;1.00;;;27.70;55.30;;;;;;5078393;28;20044;-73
2023/07/15 12:16:28;;;;;;;2.93;0.90;;;27.60;53.50;;;;;;5081602;28;20514;-74
2023/07/15 12:18:55;;;;;;;2.40;1.20;;;27.40;54.20;;;;;;5068894;28;20036;-73
2023/07/15 12:21:21;;;;;;;3.67;1.20;;;27.50;54.70;;;;;;5073462;28;20047;-73
2023/07/15 12:23:47;;;;;;;2.33;1.13;;;27.60;54.50;;;;;;5088245;28;20093;-73
2023/07/15 12:26:13;;;;;;;3.10;1.23;;;27.60;53.30;;;;;;5083130;28;20825;-73
2023/07/15 12:28:38;;;;;;;2.60;1.10;;;27.40;54.20;;;;;;5068278;28;20044;-73
2023/07/15 12:31:04;;;;;;;3.13;1.30;;;27.20;53.80;;;;;;5079088;28;20047;-73
2023/07/15 12:33:30;;;;;;;2.20;1.37;;;26.70;54.00;;;;;;5081431;28;20048;-73
2023/07/15 12:35:55;;;;;;;4.00;1.30;;;26.40;55.30;;;;;;5080406;28;20044;-73
2023/07/15 12:38:21;;;;;;;3.77;1.20;;;26.20;55.90;;;;;;5083100;28;20578;-73
2023/07/15 12:40:47;;;;;;;2.30;1.03;;;26.20;56.20;;;;;;5066407;28;20036;-73
2023/07/15 12:43:14;;;;;;;2.50;1.30;;;26.30;56.10;;;;;;5071195;28;20051;-73
2023/07/15 12:45:41;;;;;;;3.40;1.40;;;26.30;56.40;;;;;;5085274;28;20581;-73
2023/07/15 12:48:07;;;;;;;2.30;1.60;;;26.20;56.60;;;;;;5072284;28;20036;-73